sensor_id;sensor_type;location;lat;lon;timestamp;temperature;humidity
6756;DHT22;3415;51.148;7.014;2023-02-03T00:00:36;8.00;1.00
6756;DHT22;3415;51.148;7.014;2023-02-03T00:03:04;8.00;1.00
6756;DHT22;3415;51.148;7.014;2023-02-03T00:05:31;8.10;1.00
6756;DHT22;3415;51.148;7.014;2023-02-03T00:07:59;11.10;1.00
6756;DHT22;3415;51.148;7.014;2023-02-03T00:10:27;8.00;1.00
6756;DHT22;3415;51.148;7.014;2023-02-03T00:12:54;8.00;1.00
6756;DHT22;3415;51.148;7.014;2023-02-03T00:15:22;8.00;1.00
6756;DHT22;3415;51.148;7.014;2023-02-03T00:17:49;8.00;1.00
6756;DHT22;3415;51.148;7.014;2023-02-03T00:20:17;8.00;1.00
6756;DHT22;3415;51.148;7.014;2023-02-03T00:22:44;8.00;1.00
6756;DHT22;3415;51.148;7.014;2023-02-03T00:25:11;8.00;1.00
6756;DHT22;3415;51.148;7.014;2023-02-03T00:27:38;8.00;1.00
6756;DHT22;3415;51.148;7.014;2023-02-03T00:30:05;8.10;1.00
6756;DHT22;3415;51.148;7.014;2023-02-03T00:32:32;8.10;1.00
6756;DHT22;3415;51.148;7.014;2023-02-03T00:34:59;8.10;1.00
6756;DHT22;3415;51.148;7.014;2023-02-03T00:37:27;8.10;1.00
6756;DHT22;3415;51.148;7.014;2023-02-03T00:39:54;8.10;1.00
6756;DHT22;3415;51.148;7.014;2023-02-03T00:42:21;8.00;1.00
6756;DHT22;3415;51.148;7.014;2023-02-03T00:44:47;8.10;1.00
6756;DHT22;3415;51.148;7.014;2023-02-03T00:47:14;8.10;1.00
6756;DHT22;3415;51.148;7.014;2023-02-03T00:49:41;8.10;1.00
6756;DHT22;3415;51.148;7.014;2023-02-03T00:52:08;8.10;99.90
6756;DHT22;3415;51.148;7.014;2023-02-03T00:54:36;8.10;99.90
6756;DHT22;3415;51.148;7.014;2023-02-03T00:57:03;8.10;99.90
6756;DHT22;3415;51.148;7.014;2023-02-03T00:59:29;8.10;99.90
6756;DHT22;3415;51.148;7.014;2023-02-03T01:01:56;8.10;99.90
6756;DHT22;3415;51.148;7.014;2023-02-03T01:04:23;8.20;99.90
6756;DHT22;3415;51.148;7.014;2023-02-03T01:06:50;8.20;99.90
6756;DHT22;3415;51.148;7.014;2023-02-03T01:09:20;8.20;99.90
6756;DHT22;3415;51.148;7.014;2023-02-03T01:11:48;8.20;99.90
6756;DHT22;3415;51.148;7.014;2023-02-03T01:14:15;8.10;99.90
6756;DHT22;3415;51.148;7.014;2023-02-03T01:16:42;8.10;99.90
6756;DHT22;3415;51.148;7.014;2023-02-03T01:19:09;8.10;99.90
6756;DHT22;3415;51.148;7.014;2023-02-03T01:21:35;8.10;99.90
6756;DHT22;3415;51.148;7.014;2023-02-03T01:24:02;8.20;99.90
6756;DHT22;3415;51.148;7.014;2023-02-03T01:26:29;8.10;99.90
6756;DHT22;3415;51.148;7.014;2023-02-03T01:28:59;8.10;99.90
6756;DHT22;3415;51.148;7.014;2023-02-03T01:31:28;8.10;99.90
6756;DHT22;3415;51.148;7.014;2023-02-03T01:33:55;8.10;99.90
6756;DHT22;3415;51.148;7.014;2023-02-03T01:36:24;8.20;99.90
6756;DHT22;3415;51.148;7.014;2023-02-03T01:38:52;8.20;99.90
6756;DHT22;3415;51.148;7.014;2023-02-03T01:41:22;8.20;99.90
6756;DHT22;3415;51.148;7.014;2023-02-03T01:43:51;8.20;99.90
6756;DHT22;3415;51.148;7.014;2023-02-03T01:46:26;8.30;99.90
6756;DHT22;3415;51.148;7.014;2023-02-03T01:48:55;8.30;99.90
6756;DHT22;3415;51.148;7.014;2023-02-03T01:51:25;8.40;99.90
6756;DHT22;3415;51.148;7.014;2023-02-03T01:53:52;8.20;99.90
6756;DHT22;3415;51.148;7.014;2023-02-03T01:56:22;8.20;99.90
6756;DHT22;3415;51.148;7.014;2023-02-03T01:58:50;8.20;99.90
6756;DHT22;3415;51.148;7.014;2023-02-03T02:01:18;8.30;99.90
6756;DHT22;3415;51.148;7.014;2023-02-03T02:03:49;8.20;99.90
6756;DHT22;3415;51.148;7.014;2023-02-03T02:06:16;8.20;99.90
6756;DHT22;3415;51.148;7.014;2023-02-03T02:08:45;8.20;99.90
6756;DHT22;3415;51.148;7.014;2023-02-03T02:11:12;8.20;99.90
6756;DHT22;3415;51.148;7.014;2023-02-03T02:13:40;8.20;99.90
6756;DHT22;3415;51.148;7.014;2023-02-03T02:16:11;8.20;99.90
6756;DHT22;3415;51.148;7.014;2023-02-03T02:18:56;8.30;99.90
6756;DHT22;3415;51.148;7.014;2023-02-03T02:21:48;8.30;99.90
6756;DHT22;3415;51.148;7.014;2023-02-03T02:24:51;8.20;99.90
6756;DHT22;3415;51.148;7.014;2023-02-03T02:27:47;8.20;99.90
6756;DHT22;3415;51.148;7.014;2023-02-03T02:30:38;8.20;99.90
6756;DHT22;3415;51.148;7.014;2023-02-03T02:33:17;8.20;99.90
6756;DHT22;3415;51.148;7.014;2023-02-03T02:35:57;8.30;99.90
6756;DHT22;3415;51.148;7.014;2023-02-03T02:38:34;8.20;99.90
6756;DHT22;3415;51.148;7.014;2023-02-03T02:41:06;8.20;99.90
6756;DHT22;3415;51.148;7.014;2023-02-03T02:43:39;8.20;99.90
6756;DHT22;3415;51.148;7.014;2023-02-03T02:46:10;8.20;99.90
6756;DHT22;3415;51.148;7.014;2023-02-03T02:48:43;8.20;99.90
6756;DHT22;3415;51.148;7.014;2023-02-03T02:51:13;8.20;99.90
6756;DHT22;3415;51.148;7.014;2023-02-03T02:53:45;8.20;99.90
6756;DHT22;3415;51.148;7.014;2023-02-03T02:56:14;8.20;99.90
6756;DHT22;3415;51.148;7.014;2023-02-03T02:58:44;8.20;99.90
6756;DHT22;3415;51.148;7.014;2023-02-03T03:01:13;8.20;99.90
6756;DHT22;3415;51.148;7.014;2023-02-03T03:03:42;8.20;99.90
6756;DHT22;3415;51.148;7.014;2023-02-03T03:06:12;8.10;99.90
6756;DHT22;3415;51.148;7.014;2023-02-03T03:08:43;8.10;99.90
6756;DHT22;3415;51.148;7.014;2023-02-03T03:11:11;8.20;99.90
6756;DHT22;3415;51.148;7.014;2023-02-03T03:13:41;8.10;99.90
6756;DHT22;3415;51.148;7.014;2023-02-03T03:16:11;8.20;99.90
6756;DHT22;3415;51.148;7.014;2023-02-03T03:18:44;8.10;99.90
6756;DHT22;3415;51.148;7.014;2023-02-03T03:21:15;8.10;99.90
6756;DHT22;3415;51.148;7.014;2023-02-03T03:23:46;8.10;99.90
6756;DHT22;3415;51.148;7.014;2023-02-03T03:26:21;8.10;99.90
6756;DHT22;3415;51.148;7.014;2023-02-03T03:28:58;8.10;99.90
6756;DHT22;3415;51.148;7.014;2023-02-03T03:31:27;8.10;99.90
6756;DHT22;3415;51.148;7.014;2023-02-03T03:33:55;8.10;99.90
6756;DHT22;3415;51.148;7.014;2023-02-03T03:36:25;8.10;99.90
6756;DHT22;3415;51.148;7.014;2023-02-03T03:38:56;8.10;99.90
6756;DHT22;3415;51.148;7.014;2023-02-03T03:41:33;8.10;99.90
6756;DHT22;3415;51.148;7.014;2023-02-03T03:44:03;8.20;99.90
6756;DHT22;3415;51.148;7.014;2023-02-03T03:46:34;8.40;99.90
6756;DHT22;3415;51.148;7.014;2023-02-03T03:49:07;8.20;99.90
6756;DHT22;3415;51.148;7.014;2023-02-03T03:51:39;8.40;99.90
6756;DHT22;3415;51.148;7.014;2023-02-03T03:54:11;8.20;99.90
6756;DHT22;3415;51.148;7.014;2023-02-03T03:56:42;8.40;99.90
6756;DHT22;3415;51.148;7.014;2023-02-03T03:59:13;8.20;99.90
6756;DHT22;3415;51.148;7.014;2023-02-03T04:01:41;8.20;99.90
6756;DHT22;3415;51.148;7.014;2023-02-03T04:04:10;8.10;99.90
6756;DHT22;3415;51.148;7.014;2023-02-03T04:06:38;8.20;99.90
6756;DHT22;3415;51.148;7.014;2023-02-03T04:09:05;8.10;99.90
6756;DHT22;3415;51.148;7.014;2023-02-03T04:11:32;8.10;99.90
6756;DHT22;3415;51.148;7.014;2023-02-03T04:14:17;8.10;99.90
6756;DHT22;3415;51.148;7.014;2023-02-03T04:16:43;8.20;99.90
6756;DHT22;3415;51.148;7.014;2023-02-03T04:19:12;8.20;99.90
6756;DHT22;3415;51.148;7.014;2023-02-03T04:21:38;8.40;99.90
6756;DHT22;3415;51.148;7.014;2023-02-03T04:24:05;8.20;99.90
6756;DHT22;3415;51.148;7.014;2023-02-03T04:26:32;8.20;99.90
6756;DHT22;3415;51.148;7.014;2023-02-03T04:28:59;8.20;99.90
6756;DHT22;3415;51.148;7.014;2023-02-03T04:31:26;8.20;99.90
6756;DHT22;3415;51.148;7.014;2023-02-03T04:33:53;8.10;99.90
6756;DHT22;3415;51.148;7.014;2023-02-03T04:36:21;8.20;99.90
6756;DHT22;3415;51.148;7.014;2023-02-03T04:38:48;8.20;99.90
6756;DHT22;3415;51.148;7.014;2023-02-03T04:41:15;8.20;99.90
6756;DHT22;3415;51.148;7.014;2023-02-03T04:43:42;8.20;99.90
6756;DHT22;3415;51.148;7.014;2023-02-03T04:46:09;8.20;99.90
6756;DHT22;3415;51.148;7.014;2023-02-03T04:48:36;8.10;99.90
6756;DHT22;3415;51.148;7.014;2023-02-03T04:51:04;8.40;99.90
6756;DHT22;3415;51.148;7.014;2023-02-03T04:53:33;8.20;99.90
6756;DHT22;3415;51.148;7.014;2023-02-03T04:56:00;8.20;99.90
6756;DHT22;3415;51.148;7.014;2023-02-03T04:58:27;8.30;99.90
6756;DHT22;3415;51.148;7.014;2023-02-03T05:00:55;8.20;99.90
6756;DHT22;3415;51.148;7.014;2023-02-03T05:03:22;8.20;99.90
6756;DHT22;3415;51.148;7.014;2023-02-03T05:05:49;8.20;99.90
6756;DHT22;3415;51.148;7.014;2023-02-03T05:08:16;8.20;99.90
6756;DHT22;3415;51.148;7.014;2023-02-03T05:10:44;8.20;99.90
6756;DHT22;3415;51.148;7.014;2023-02-03T05:13:11;8.30;99.90
6756;DHT22;3415;51.148;7.014;2023-02-03T05:15:38;8.20;99.90
6756;DHT22;3415;51.148;7.014;2023-02-03T05:18:05;8.20;99.90
6756;DHT22;3415;51.148;7.014;2023-02-03T05:20:32;8.20;99.90
6756;DHT22;3415;51.148;7.014;2023-02-03T05:22:59;8.20;99.90
6756;DHT22;3415;51.148;7.014;2023-02-03T05:25:26;8.20;99.90
6756;DHT22;3415;51.148;7.014;2023-02-03T05:27:54;8.20;99.90
6756;DHT22;3415;51.148;7.014;2023-02-03T05:30:21;8.20;99.90
6756;DHT22;3415;51.148;7.014;2023-02-03T05:32:48;8.20;99.90
6756;DHT22;3415;51.148;7.014;2023-02-03T05:35:15;8.20;99.90
6756;DHT22;3415;51.148;7.014;2023-02-03T05:37:43;8.30;99.90
6756;DHT22;3415;51.148;7.014;2023-02-03T05:40:11;8.20;99.90
6756;DHT22;3415;51.148;7.014;2023-02-03T05:42:57;8.30;99.90
6756;DHT22;3415;51.148;7.014;2023-02-03T05:45:24;8.30;99.90
6756;DHT22;3415;51.148;7.014;2023-02-03T05:47:51;8.20;99.90
6756;DHT22;3415;51.148;7.014;2023-02-03T05:50:18;8.20;99.90
6756;DHT22;3415;51.148;7.014;2023-02-03T05:52:47;8.30;99.90
6756;DHT22;3415;51.148;7.014;2023-02-03T05:55:14;8.30;99.90
6756;DHT22;3415;51.148;7.014;2023-02-03T05:57:41;8.40;99.90
6756;DHT22;3415;51.148;7.014;2023-02-03T06:00:11;8.20;99.90
6756;DHT22;3415;51.148;7.014;2023-02-03T06:02:39;8.20;99.90
6756;DHT22;3415;51.148;7.014;2023-02-03T06:05:06;8.20;99.90
6756;DHT22;3415;51.148;7.014;2023-02-03T06:07:33;8.20;99.90
6756;DHT22;3415;51.148;7.014;2023-02-03T06:10:00;8.30;99.90
6756;DHT22;3415;51.148;7.014;2023-02-03T06:12:27;8.20;99.90
6756;DHT22;3415;51.148;7.014;2023-02-03T06:14:53;8.30;99.90
6756;DHT22;3415;51.148;7.014;2023-02-03T06:17:22;8.20;99.90
6756;DHT22;3415;51.148;7.014;2023-02-03T06:19:48;8.50;99.90
6756;DHT22;3415;51.148;7.014;2023-02-03T06:22:15;8.20;99.90
6756;DHT22;3415;51.148;7.014;2023-02-03T06:24:42;8.20;99.90
6756;DHT22;3415;51.148;7.014;2023-02-03T06:27:10;8.30;99.90
6756;DHT22;3415;51.148;7.014;2023-02-03T06:29:37;8.30;99.90
6756;DHT22;3415;51.148;7.014;2023-02-03T06:34:33;8.30;99.90
6756;DHT22;3415;51.148;7.014;2023-02-03T06:37:00;8.30;99.90
6756;DHT22;3415;51.148;7.014;2023-02-03T06:39:26;8.30;99.90
6756;DHT22;3415;51.148;7.014;2023-02-03T06:41:53;8.30;99.90
6756;DHT22;3415;51.148;7.014;2023-02-03T06:44:21;8.20;99.90
6756;DHT22;3415;51.148;7.014;2023-02-03T06:46:48;8.20;99.90
6756;DHT22;3415;51.148;7.014;2023-02-03T06:49:15;8.20;99.90
6756;DHT22;3415;51.148;7.014;2023-02-03T06:51:44;8.20;99.90
6756;DHT22;3415;51.148;7.014;2023-02-03T06:54:12;8.20;99.90
6756;DHT22;3415;51.148;7.014;2023-02-03T06:56:39;8.20;99.90
6756;DHT22;3415;51.148;7.014;2023-02-03T06:59:05;8.20;99.90
6756;DHT22;3415;51.148;7.014;2023-02-03T07:01:33;8.20;89.30
6756;DHT22;3415;51.148;7.014;2023-02-03T07:04:00;8.30;54.50
6756;DHT22;3415;51.148;7.014;2023-02-03T07:06:27;8.30;48.80
6756;DHT22;3415;51.148;7.014;2023-02-03T07:08:58;8.30;49.50
6756;DHT22;3415;51.148;7.014;2023-02-03T07:11:26;8.20;50.10
6756;DHT22;3415;51.148;7.014;2023-02-03T07:13:53;8.20;42.50
6756;DHT22;3415;51.148;7.014;2023-02-03T07:16:20;8.30;39.60
6756;DHT22;3415;51.148;7.014;2023-02-03T07:18:47;8.30;42.90
6756;DHT22;3415;51.148;7.014;2023-02-03T07:21:15;8.40;42.40
6756;DHT22;3415;51.148;7.014;2023-02-03T07:23:42;8.30;42.60
6756;DHT22;3415;51.148;7.014;2023-02-03T07:26:10;8.40;42.40
6756;DHT22;3415;51.148;7.014;2023-02-03T07:28:37;8.40;27.60
6756;DHT22;3415;51.148;7.014;2023-02-03T07:31:04;8.40;26.10
6756;DHT22;3415;51.148;7.014;2023-02-03T07:33:32;8.40;18.00
6756;DHT22;3415;51.148;7.014;2023-02-03T07:35:59;8.40;18.50
6756;DHT22;3415;51.148;7.014;2023-02-03T07:38:27;8.30;23.60
6756;DHT22;3415;51.148;7.014;2023-02-03T07:40:54;8.40;23.20
6756;DHT22;3415;51.148;7.014;2023-02-03T07:43:23;8.30;23.20
6756;DHT22;3415;51.148;7.014;2023-02-03T07:45:50;8.40;20.10
6756;DHT22;3415;51.148;7.014;2023-02-03T07:48:16;8.40;17.50
6756;DHT22;3415;51.148;7.014;2023-02-03T07:50:43;8.40;16.80
6756;DHT22;3415;51.148;7.014;2023-02-03T07:53:11;8.40;18.80
6756;DHT22;3415;51.148;7.014;2023-02-03T07:55:38;8.30;17.10
6756;DHT22;3415;51.148;7.014;2023-02-03T07:58:05;8.40;16.50
6756;DHT22;3415;51.148;7.014;2023-02-03T08:00:34;8.40;12.60
6756;DHT22;3415;51.148;7.014;2023-02-03T08:03:01;8.40;14.20
6756;DHT22;3415;51.148;7.014;2023-02-03T08:05:28;8.40;14.70
6756;DHT22;3415;51.148;7.014;2023-02-03T08:07:55;8.40;5.90
6756;DHT22;3415;51.148;7.014;2023-02-03T08:10:22;8.40;7.80
6756;DHT22;3415;51.148;7.014;2023-02-03T08:12:51;8.50;2.60
6756;DHT22;3415;51.148;7.014;2023-02-03T08:15:18;8.50;1.00
6756;DHT22;3415;51.148;7.014;2023-02-03T08:17:47;8.50;1.00
6756;DHT22;3415;51.148;7.014;2023-02-03T08:20:15;8.50;1.00
6756;DHT22;3415;51.148;7.014;2023-02-03T08:22:42;8.60;1.00
6756;DHT22;3415;51.148;7.014;2023-02-03T08:25:09;8.50;1.00
6756;DHT22;3415;51.148;7.014;2023-02-03T08:27:36;8.50;1.00
6756;DHT22;3415;51.148;7.014;2023-02-03T08:30:03;8.60;1.00
6756;DHT22;3415;51.148;7.014;2023-02-03T08:32:32;8.60;1.00
6756;DHT22;3415;51.148;7.014;2023-02-03T08:35:00;8.60;1.00
6756;DHT22;3415;51.148;7.014;2023-02-03T08:37:27;8.60;1.00
6756;DHT22;3415;51.148;7.014;2023-02-03T08:39:56;8.60;1.00
6756;DHT22;3415;51.148;7.014;2023-02-03T08:42:23;8.60;1.00
6756;DHT22;3415;51.148;7.014;2023-02-03T08:44:50;8.60;1.00
6756;DHT22;3415;51.148;7.014;2023-02-03T08:47:17;8.60;1.00
6756;DHT22;3415;51.148;7.014;2023-02-03T08:49:44;8.60;1.00
6756;DHT22;3415;51.148;7.014;2023-02-03T08:52:13;8.60;1.00
6756;DHT22;3415;51.148;7.014;2023-02-03T08:54:39;8.60;1.00
6756;DHT22;3415;51.148;7.014;2023-02-03T08:57:07;8.50;1.00
6756;DHT22;3415;51.148;7.014;2023-02-03T08:59:35;8.60;1.00
6756;DHT22;3415;51.148;7.014;2023-02-03T09:02:04;8.50;1.00
6756;DHT22;3415;51.148;7.014;2023-02-03T09:04:31;8.60;1.00
6756;DHT22;3415;51.148;7.014;2023-02-03T09:06:58;8.60;1.00
6756;DHT22;3415;51.148;7.014;2023-02-03T09:09:28;8.50;1.00
6756;DHT22;3415;51.148;7.014;2023-02-03T09:11:55;8.50;1.00
6756;DHT22;3415;51.148;7.014;2023-02-03T09:14:27;8.50;1.00
6756;DHT22;3415;51.148;7.014;2023-02-03T09:16:53;8.50;1.00
6756;DHT22;3415;51.148;7.014;2023-02-03T09:19:20;8.50;1.00
6756;DHT22;3415;51.148;7.014;2023-02-03T09:21:47;8.50;1.00
6756;DHT22;3415;51.148;7.014;2023-02-03T09:24:15;8.50;1.00
6756;DHT22;3415;51.148;7.014;2023-02-03T09:26:43;8.50;1.00
6756;DHT22;3415;51.148;7.014;2023-02-03T09:29:10;8.50;1.00
6756;DHT22;3415;51.148;7.014;2023-02-03T09:31:37;8.50;1.00
6756;DHT22;3415;51.148;7.014;2023-02-03T09:34:04;8.40;1.00
6756;DHT22;3415;51.148;7.014;2023-02-03T09:36:30;8.50;1.00
6756;DHT22;3415;51.148;7.014;2023-02-03T09:38:57;8.50;1.00
6756;DHT22;3415;51.148;7.014;2023-02-03T09:41:38;8.50;1.00
6756;DHT22;3415;51.148;7.014;2023-02-03T09:44:13;8.50;1.00
6756;DHT22;3415;51.148;7.014;2023-02-03T09:46:45;8.40;1.00
6756;DHT22;3415;51.148;7.014;2023-02-03T09:49:15;8.40;1.00
6756;DHT22;3415;51.148;7.014;2023-02-03T09:51:46;8.50;1.00
6756;DHT22;3415;51.148;7.014;2023-02-03T09:54:18;8.50;1.00
6756;DHT22;3415;51.148;7.014;2023-02-03T09:56:46;8.50;1.00
6756;DHT22;3415;51.148;7.014;2023-02-03T09:59:18;8.50;1.00
6756;DHT22;3415;51.148;7.014;2023-02-03T10:01:52;8.50;1.00
6756;DHT22;3415;51.148;7.014;2023-02-03T10:04:27;8.50;1.00
6756;DHT22;3415;51.148;7.014;2023-02-03T10:07:03;8.50;1.00
6756;DHT22;3415;51.148;7.014;2023-02-03T10:09:42;8.60;1.00
6756;DHT22;3415;51.148;7.014;2023-02-03T10:12:26;8.60;1.00
6756;DHT22;3415;51.148;7.014;2023-02-03T10:15:14;8.60;1.00
6756;DHT22;3415;51.148;7.014;2023-02-03T10:17:49;8.50;1.00
6756;DHT22;3415;51.148;7.014;2023-02-03T10:20:22;8.50;1.00
6756;DHT22;3415;51.148;7.014;2023-02-03T10:22:54;8.60;1.00
6756;DHT22;3415;51.148;7.014;2023-02-03T10:25:27;8.60;1.00
6756;DHT22;3415;51.148;7.014;2023-02-03T10:28:00;8.60;1.00
6756;DHT22;3415;51.148;7.014;2023-02-03T10:30:32;8.60;1.00
6756;DHT22;3415;51.148;7.014;2023-02-03T10:33:11;8.60;1.00
6756;DHT22;3415;51.148;7.014;2023-02-03T10:35:46;8.60;1.00
6756;DHT22;3415;51.148;7.014;2023-02-03T10:38:19;8.60;1.00
6756;DHT22;3415;51.148;7.014;2023-02-03T10:40:50;8.60;6.70
6756;DHT22;3415;51.148;7.014;2023-02-03T10:43:17;8.60;14.90
6756;DHT22;3415;51.148;7.014;2023-02-03T10:46:03;8.60;17.70
6756;DHT22;3415;51.148;7.014;2023-02-03T10:48:30;8.60;23.50
6756;DHT22;3415;51.148;7.014;2023-02-03T10:50:57;8.60;28.20
6756;DHT22;3415;51.148;7.014;2023-02-03T10:53:25;8.60;32.80
6756;DHT22;3415;51.148;7.014;2023-02-03T10:56:03;8.60;36.00
6756;DHT22;3415;51.148;7.014;2023-02-03T10:58:32;8.60;42.30
6756;DHT22;3415;51.148;7.014;2023-02-03T11:01:11;8.60;42.60
6756;DHT22;3415;51.148;7.014;2023-02-03T11:03:41;8.60;42.60
6756;DHT22;3415;51.148;7.014;2023-02-03T11:06:10;8.60;42.60
6756;DHT22;3415;51.148;7.014;2023-02-03T11:08:39;8.60;42.80
6756;DHT22;3415;51.148;7.014;2023-02-03T11:11:08;8.70;42.80
6756;DHT22;3415;51.148;7.014;2023-02-03T11:13:35;8.70;42.70
6756;DHT22;3415;51.148;7.014;2023-02-03T11:16:04;8.70;42.70
6756;DHT22;3415;51.148;7.014;2023-02-03T11:18:43;8.70;42.90
6756;DHT22;3415;51.148;7.014;2023-02-03T11:21:14;8.70;42.70
6756;DHT22;3415;51.148;7.014;2023-02-03T11:23:47;8.70;42.90
6756;DHT22;3415;51.148;7.014;2023-02-03T11:26:18;8.70;40.00
6756;DHT22;3415;51.148;7.014;2023-02-03T11:28:48;8.70;42.80
6756;DHT22;3415;51.148;7.014;2023-02-03T11:31:21;8.70;42.80
6756;DHT22;3415;51.148;7.014;2023-02-03T11:33:53;8.80;42.90
6756;DHT22;3415;51.148;7.014;2023-02-03T11:36:21;8.80;43.00
6756;DHT22;3415;51.148;7.014;2023-02-03T11:38:51;8.80;42.80
6756;DHT22;3415;51.148;7.014;2023-02-03T11:41:19;8.80;43.00
6756;DHT22;3415;51.148;7.014;2023-02-03T11:43:46;8.80;42.80
6756;DHT22;3415;51.148;7.014;2023-02-03T11:46:14;8.80;42.80
6756;DHT22;3415;51.148;7.014;2023-02-03T11:48:54;8.80;43.00
6756;DHT22;3415;51.148;7.014;2023-02-03T11:51:30;8.80;43.00
6756;DHT22;3415;51.148;7.014;2023-02-03T11:54:11;8.90;40.10
6756;DHT22;3415;51.148;7.014;2023-02-03T11:56:58;8.80;43.00
6756;DHT22;3415;51.148;7.014;2023-02-03T11:59:39;8.90;42.80
6756;DHT22;3415;51.148;7.014;2023-02-03T12:05:44;9.00;14.20
6756;DHT22;3415;51.148;7.014;2023-02-03T12:08:25;9.00;15.20
6756;DHT22;3415;51.148;7.014;2023-02-03T12:11:03;9.00;10.50
6756;DHT22;3415;51.148;7.014;2023-02-03T12:13:44;9.00;12.30
6756;DHT22;3415;51.148;7.014;2023-02-03T12:16:34;9.00;7.50
6756;DHT22;3415;51.148;7.014;2023-02-03T12:19:12;9.10;4.00
6756;DHT22;3415;51.148;7.014;2023-02-03T12:21:45;9.00;1.00
6756;DHT22;3415;51.148;7.014;2023-02-03T12:24:22;9.10;1.00
6756;DHT22;3415;51.148;7.014;2023-02-03T12:26:59;9.00;1.00
6756;DHT22;3415;51.148;7.014;2023-02-03T12:29:30;9.10;1.00
6756;DHT22;3415;51.148;7.014;2023-02-03T12:32:04;9.10;1.00
6756;DHT22;3415;51.148;7.014;2023-02-03T12:34:34;9.10;1.00
6756;DHT22;3415;51.148;7.014;2023-02-03T12:37:07;9.20;1.00
6756;DHT22;3415;51.148;7.014;2023-02-03T12:39:39;9.10;1.00
6756;DHT22;3415;51.148;7.014;2023-02-03T12:42:13;9.10;1.00
6756;DHT22;3415;51.148;7.014;2023-02-03T12:44:46;9.10;1.00
6756;DHT22;3415;51.148;7.014;2023-02-03T12:47:19;9.10;1.00
6756;DHT22;3415;51.148;7.014;2023-02-03T12:49:51;9.20;1.00
6756;DHT22;3415;51.148;7.014;2023-02-03T12:52:25;9.20;1.00
6756;DHT22;3415;51.148;7.014;2023-02-03T12:55:01;9.20;1.00
6756;DHT22;3415;51.148;7.014;2023-02-03T12:57:33;6.10;1.00
6756;DHT22;3415;51.148;7.014;2023-02-03T13:00:18;9.20;1.00
6756;DHT22;3415;51.148;7.014;2023-02-03T13:02:58;9.20;1.00
6756;DHT22;3415;51.148;7.014;2023-02-03T13:05:31;9.20;1.00
6756;DHT22;3415;51.148;7.014;2023-02-03T13:08:09;9.20;1.00
6756;DHT22;3415;51.148;7.014;2023-02-03T13:10:40;9.20;1.00
6756;DHT22;3415;51.148;7.014;2023-02-03T13:13:12;9.20;1.00
6756;DHT22;3415;51.148;7.014;2023-02-03T13:15:44;9.20;1.00
6756;DHT22;3415;51.148;7.014;2023-02-03T13:18:19;9.30;1.00
6756;DHT22;3415;51.148;7.014;2023-02-03T13:20:51;9.30;1.00
6756;DHT22;3415;51.148;7.014;2023-02-03T13:23:20;9.30;1.00
6756;DHT22;3415;51.148;7.014;2023-02-03T13:25:57;9.30;1.00
6756;DHT22;3415;51.148;7.014;2023-02-03T13:28:41;9.30;1.00
6756;DHT22;3415;51.148;7.014;2023-02-03T13:31:17;9.40;1.00
6756;DHT22;3415;51.148;7.014;2023-02-03T13:33:57;9.40;1.00
6756;DHT22;3415;51.148;7.014;2023-02-03T13:37:01;9.40;1.00
6756;DHT22;3415;51.148;7.014;2023-02-03T13:39:45;9.50;1.00
6756;DHT22;3415;51.148;7.014;2023-02-03T13:42:23;9.60;1.00
6756;DHT22;3415;51.148;7.014;2023-02-03T13:44:54;9.50;1.00
6756;DHT22;3415;51.148;7.014;2023-02-03T13:47:25;9.60;1.00
6756;DHT22;3415;51.148;7.014;2023-02-03T13:49:57;9.70;1.00
6756;DHT22;3415;51.148;7.014;2023-02-03T13:52:29;9.70;1.00
6756;DHT22;3415;51.148;7.014;2023-02-03T13:55:01;9.70;1.00
6756;DHT22;3415;51.148;7.014;2023-02-03T13:57:32;9.70;1.00
6756;DHT22;3415;51.148;7.014;2023-02-03T14:00:01;9.70;1.00
6756;DHT22;3415;51.148;7.014;2023-02-03T14:05:39;9.60;1.00
6756;DHT22;3415;51.148;7.014;2023-02-03T14:11:45;9.60;1.00
6756;DHT22;3415;51.148;7.014;2023-02-03T14:14:40;9.50;1.00
6756;DHT22;3415;51.148;7.014;2023-02-03T14:23:37;9.50;1.00
6756;DHT22;3415;51.148;7.014;2023-02-03T14:26:05;9.50;1.00
6756;DHT22;3415;51.148;7.014;2023-02-03T14:28:42;9.50;1.00
6756;DHT22;3415;51.148;7.014;2023-02-03T14:31:12;9.50;1.00
6756;DHT22;3415;51.148;7.014;2023-02-03T14:34:09;9.50;1.00
6756;DHT22;3415;51.148;7.014;2023-02-03T14:36:47;9.50;1.00
6756;DHT22;3415;51.148;7.014;2023-02-03T14:39:30;9.40;1.00
6756;DHT22;3415;51.148;7.014;2023-02-03T14:42:06;9.40;1.00
6756;DHT22;3415;51.148;7.014;2023-02-03T14:44:42;9.40;1.00
6756;DHT22;3415;51.148;7.014;2023-02-03T14:47:20;9.30;1.00
6756;DHT22;3415;51.148;7.014;2023-02-03T14:50:10;9.30;1.00
6756;DHT22;3415;51.148;7.014;2023-02-03T14:52:58;9.40;3.10
6756;DHT22;3415;51.148;7.014;2023-02-03T14:55:37;9.30;2.80
6756;DHT22;3415;51.148;7.014;2023-02-03T14:58:15;9.30;17.10
6756;DHT22;3415;51.148;7.014;2023-02-03T15:00:46;9.20;22.40
6756;DHT22;3415;51.148;7.014;2023-02-03T15:03:22;9.30;43.40
6756;DHT22;3415;51.148;7.014;2023-02-03T15:05:52;9.30;67.10
6756;DHT22;3415;51.148;7.014;2023-02-03T15:08:45;9.20;71.50
6756;DHT22;3415;51.148;7.014;2023-02-03T15:11:25;9.20;93.60
6756;DHT22;3415;51.148;7.014;2023-02-03T15:13:53;9.20;96.20
6756;DHT22;3415;51.148;7.014;2023-02-03T15:16:23;9.30;99.90
6756;DHT22;3415;51.148;7.014;2023-02-03T15:18:55;9.20;99.90
6756;DHT22;3415;51.148;7.014;2023-02-03T15:21:23;9.10;99.90
6756;DHT22;3415;51.148;7.014;2023-02-03T15:23:50;9.20;99.90
6756;DHT22;3415;51.148;7.014;2023-02-03T15:26:19;9.10;99.90
6756;DHT22;3415;51.148;7.014;2023-02-03T15:28:56;9.10;99.90
6756;DHT22;3415;51.148;7.014;2023-02-03T15:31:29;9.00;99.90
6756;DHT22;3415;51.148;7.014;2023-02-03T15:34:02;8.90;99.90
6756;DHT22;3415;51.148;7.014;2023-02-03T15:36:38;8.60;55.60
6756;DHT22;3415;51.148;7.014;2023-02-03T15:39:16;8.60;58.10
6756;DHT22;3415;51.148;7.014;2023-02-03T15:41:45;8.50;42.90
6756;DHT22;3415;51.148;7.014;2023-02-03T15:44:25;8.40;42.50
6756;DHT22;3415;51.148;7.014;2023-02-03T15:46:54;8.30;39.60
6756;DHT22;3415;51.148;7.014;2023-02-03T15:49:25;8.30;43.10
6756;DHT22;3415;51.148;7.014;2023-02-03T15:51:56;8.30;42.70
6756;DHT22;3415;51.148;7.014;2023-02-03T15:54:26;8.20;42.40
6756;DHT22;3415;51.148;7.014;2023-02-03T15:56:58;8.20;34.80
6756;DHT22;3415;51.148;7.014;2023-02-03T15:59:30;8.20;28.90
6756;DHT22;3415;51.148;7.014;2023-02-03T16:02:00;8.20;21.70
6756;DHT22;3415;51.148;7.014;2023-02-03T16:04:29;8.20;21.80
6756;DHT22;3415;51.148;7.014;2023-02-03T16:06:56;8.10;23.40
6756;DHT22;3415;51.148;7.014;2023-02-03T16:09:31;8.20;23.30
6756;DHT22;3415;51.148;7.014;2023-02-03T16:12:04;8.10;26.10
6756;DHT22;3415;51.148;7.014;2023-02-03T16:14:39;8.10;24.80
6756;DHT22;3415;51.148;7.014;2023-02-03T16:17:23;8.20;27.10
6756;DHT22;3415;51.148;7.014;2023-02-03T16:19:51;8.10;30.10
6756;DHT22;3415;51.148;7.014;2023-02-03T16:22:35;8.10;32.40
6756;DHT22;3415;51.148;7.014;2023-02-03T16:25:12;8.10;42.10
6756;DHT22;3415;51.148;7.014;2023-02-03T16:27:39;8.10;38.90
6756;DHT22;3415;51.148;7.014;2023-02-03T16:30:21;8.10;42.00
6756;DHT22;3415;51.148;7.014;2023-02-03T16:33:13;8.10;37.90
6756;DHT22;3415;51.148;7.014;2023-02-03T16:36:01;8.10;16.70
6756;DHT22;3415;51.148;7.014;2023-02-03T16:38:46;8.20;10.40
6756;DHT22;3415;51.148;7.014;2023-02-03T16:41:30;8.10;1.00
6756;DHT22;3415;51.148;7.014;2023-02-03T16:44:15;8.10;1.00
6756;DHT22;3415;51.148;7.014;2023-02-03T16:47:01;8.20;1.00
6756;DHT22;3415;51.148;7.014;2023-02-03T16:49:46;8.10;1.00
6756;DHT22;3415;51.148;7.014;2023-02-03T16:52:31;8.10;1.00
6756;DHT22;3415;51.148;7.014;2023-02-03T16:54:58;8.20;1.00
6756;DHT22;3415;51.148;7.014;2023-02-03T16:57:25;8.20;1.00
6756;DHT22;3415;51.148;7.014;2023-02-03T16:59:52;8.20;1.00
6756;DHT22;3415;51.148;7.014;2023-02-03T17:02:19;8.20;1.00
6756;DHT22;3415;51.148;7.014;2023-02-03T17:04:47;8.20;1.00
6756;DHT22;3415;51.148;7.014;2023-02-03T17:07:14;8.20;1.00
6756;DHT22;3415;51.148;7.014;2023-02-03T17:09:40;8.20;1.00